sensor_id;sensor_type;location;lat;lon;timestamp;temperature;humidity
69324;DHT22;56470;47.350;8.718;2022-07-29T00:01:59;19.45;70.19
69324;DHT22;56470;47.350;8.718;2022-07-29T00:04:24;19.47;70.39
69324;DHT22;56470;47.350;8.718;2022-07-29T00:06:50;19.45;70.53
69324;DHT22;56470;47.350;8.718;2022-07-29T00:09:15;19.53;70.38
69324;DHT22;56470;47.350;8.718;2022-07-29T00:11:40;19.46;70.39
69324;DHT22;56470;47.350;8.718;2022-07-29T00:14:06;19.39;70.59
69324;DHT22;56470;47.350;8.718;2022-07-29T00:16:31;19.39;70.50
69324;DHT22;56470;47.350;8.718;2022-07-29T00:18:57;19.34;70.76
69324;DHT22;56470;47.350;8.718;2022-07-29T00:21:22;19.29;71.19
69324;DHT22;56470;47.350;8.718;2022-07-29T00:23:47;19.24;71.06
69324;DHT22;56470;47.350;8.718;2022-07-29T00:26:13;19.16;70.92
69324;DHT22;56470;47.350;8.718;2022-07-29T00:28:38;19.11;71.20
69324;DHT22;56470;47.350;8.718;2022-07-29T00:31:03;19.09;71.18
69324;DHT22;56470;47.350;8.718;2022-07-29T00:33:29;19.05;71.32
69324;DHT22;56470;47.350;8.718;2022-07-29T00:35:54;19.01;71.78
69324;DHT22;56470;47.350;8.718;2022-07-29T00:38:19;18.98;71.84
69324;DHT22;56470;47.350;8.718;2022-07-29T00:40:46;18.99;72.08
69324;DHT22;56470;47.350;8.718;2022-07-29T00:43:12;18.88;73.71
69324;DHT22;56470;47.350;8.718;2022-07-29T00:45:39;18.91;72.51
69324;DHT22;56470;47.350;8.718;2022-07-29T00:48:04;18.92;72.21
69324;DHT22;56470;47.350;8.718;2022-07-29T00:50:31;18.95;72.01
69324;DHT22;56470;47.350;8.718;2022-07-29T00:52:57;18.94;71.72
69324;DHT22;56470;47.350;8.718;2022-07-29T00:55:22;18.92;71.98
69324;DHT22;56470;47.350;8.718;2022-07-29T00:57:48;18.95;71.84
69324;DHT22;56470;47.350;8.718;2022-07-29T01:00:24;18.96;71.62
69324;DHT22;56470;47.350;8.718;2022-07-29T01:02:50;19.02;71.18
69324;DHT22;56470;47.350;8.718;2022-07-29T01:05:21;18.98;71.17
69324;DHT22;56470;47.350;8.718;2022-07-29T01:07:49;18.94;71.05
69324;DHT22;56470;47.350;8.718;2022-07-29T01:10:16;18.92;71.73
69324;DHT22;56470;47.350;8.718;2022-07-29T01:12:43;18.85;72.10
69324;DHT22;56470;47.350;8.718;2022-07-29T01:15:12;18.81;71.87
69324;DHT22;56470;47.350;8.718;2022-07-29T01:17:59;18.87;71.72
69324;DHT22;56470;47.350;8.718;2022-07-29T01:20:34;18.87;71.48
69324;DHT22;56470;47.350;8.718;2022-07-29T01:31:18;18.75;72.16
69324;DHT22;56470;47.350;8.718;2022-07-29T01:33:47;18.78;72.79
69324;DHT22;56470;47.350;8.718;2022-07-29T01:39:06;18.95;72.18
69324;DHT22;56470;47.350;8.718;2022-07-29T01:41:34;18.96;72.12
69324;DHT22;56470;47.350;8.718;2022-07-29T01:44:13;19.01;71.66
69324;DHT22;56470;47.350;8.718;2022-07-29T01:46:45;18.96;71.66
69324;DHT22;56470;47.350;8.718;2022-07-29T01:49:17;18.99;71.55
69324;DHT22;56470;47.350;8.718;2022-07-29T01:51:50;18.94;71.55
69324;DHT22;56470;47.350;8.718;2022-07-29T01:54:24;18.96;71.38
69324;DHT22;56470;47.350;8.718;2022-07-29T01:56:53;18.87;71.73
69324;DHT22;56470;47.350;8.718;2022-07-29T01:59:20;18.69;71.80
69324;DHT22;56470;47.350;8.718;2022-07-29T02:01:47;18.56;72.63
69324;DHT22;56470;47.350;8.718;2022-07-29T02:04:14;18.60;72.42
69324;DHT22;56470;47.350;8.718;2022-07-29T02:06:41;18.53;71.53
69324;DHT22;56470;47.350;8.718;2022-07-29T02:09:09;18.56;71.41
69324;DHT22;56470;47.350;8.718;2022-07-29T02:11:37;18.56;71.86
69324;DHT22;56470;47.350;8.718;2022-07-29T02:14:03;18.56;71.64
69324;DHT22;56470;47.350;8.718;2022-07-29T02:16:31;18.60;71.36
69324;DHT22;56470;47.350;8.718;2022-07-29T02:18:58;18.67;71.17
69324;DHT22;56470;47.350;8.718;2022-07-29T02:21:25;18.74;71.60
69324;DHT22;56470;47.350;8.718;2022-07-29T02:23:52;18.79;71.31
69324;DHT22;56470;47.350;8.718;2022-07-29T02:26:20;18.72;71.01
69324;DHT22;56470;47.350;8.718;2022-07-29T02:28:48;18.67;71.48
69324;DHT22;56470;47.350;8.718;2022-07-29T02:31:16;18.58;71.63
69324;DHT22;56470;47.350;8.718;2022-07-29T02:33:42;18.58;71.72
69324;DHT22;56470;47.350;8.718;2022-07-29T02:36:08;18.57;71.61
69324;DHT22;56470;47.350;8.718;2022-07-29T02:38:35;18.56;71.45
69324;DHT22;56470;47.350;8.718;2022-07-29T02:41:47;18.53;71.23
69324;DHT22;56470;47.350;8.718;2022-07-29T02:44:15;18.53;71.31
69324;DHT22;56470;47.350;8.718;2022-07-29T02:46:59;18.51;71.33
69324;DHT22;56470;47.350;8.718;2022-07-29T02:49:35;18.41;71.87
69324;DHT22;56470;47.350;8.718;2022-07-29T02:52:07;18.39;71.71
69324;DHT22;56470;47.350;8.718;2022-07-29T02:54:39;18.40;71.55
69324;DHT22;56470;47.350;8.718;2022-07-29T02:59:52;18.32;72.20
69324;DHT22;56470;47.350;8.718;2022-07-29T03:02:20;18.33;71.80
69324;DHT22;56470;47.350;8.718;2022-07-29T03:04:46;18.30;71.98
69324;DHT22;56470;47.350;8.718;2022-07-29T03:07:14;18.32;71.90
69324;DHT22;56470;47.350;8.718;2022-07-29T03:09:44;18.33;72.07
69324;DHT22;56470;47.350;8.718;2022-07-29T03:12:10;18.40;72.05
69324;DHT22;56470;47.350;8.718;2022-07-29T03:14:36;18.43;71.92
69324;DHT22;56470;47.350;8.718;2022-07-29T03:17:02;18.40;72.11
69324;DHT22;56470;47.350;8.718;2022-07-29T03:19:27;18.47;71.94
69324;DHT22;56470;47.350;8.718;2022-07-29T03:21:56;18.56;71.59
69324;DHT22;56470;47.350;8.718;2022-07-29T03:24:33;18.58;71.45
69324;DHT22;56470;47.350;8.718;2022-07-29T03:26:59;18.68;71.49
69324;DHT22;56470;47.350;8.718;2022-07-29T03:29:25;18.63;71.80
69324;DHT22;56470;47.350;8.718;2022-07-29T03:31:51;18.58;71.79
69324;DHT22;56470;47.350;8.718;2022-07-29T03:34:16;18.49;72.49
69324;DHT22;56470;47.350;8.718;2022-07-29T03:36:41;18.40;72.51
69324;DHT22;56470;47.350;8.718;2022-07-29T03:39:07;18.46;72.40
69324;DHT22;56470;47.350;8.718;2022-07-29T03:41:35;18.50;72.29
69324;DHT22;56470;47.350;8.718;2022-07-29T03:44:01;18.53;72.26
69324;DHT22;56470;47.350;8.718;2022-07-29T03:46:28;18.54;72.21
69324;DHT22;56470;47.350;8.718;2022-07-29T03:48:58;18.57;72.25
69324;DHT22;56470;47.350;8.718;2022-07-29T03:51:25;18.58;71.88
69324;DHT22;56470;47.350;8.718;2022-07-29T03:53:51;18.56;71.76
69324;DHT22;56470;47.350;8.718;2022-07-29T03:56:20;18.56;71.84
69324;DHT22;56470;47.350;8.718;2022-07-29T03:58:46;18.50;71.87
69324;DHT22;56470;47.350;8.718;2022-07-29T04:01:13;18.49;72.59
69324;DHT22;56470;47.350;8.718;2022-07-29T04:03:38;18.47;73.99
69324;DHT22;56470;47.350;8.718;2022-07-29T04:06:06;18.28;75.04
69324;DHT22;56470;47.350;8.718;2022-07-29T04:08:32;18.13;75.43
69324;DHT22;56470;47.350;8.718;2022-07-29T04:10:59;17.84;76.95
69324;DHT22;56470;47.350;8.718;2022-07-29T04:13:24;17.73;77.19
69324;DHT22;56470;47.350;8.718;2022-07-29T04:15:49;17.75;76.95
69324;DHT22;56470;47.350;8.718;2022-07-29T04:18:15;17.92;75.78
69324;DHT22;56470;47.350;8.718;2022-07-29T04:20:40;18.06;76.59
69324;DHT22;56470;47.350;8.718;2022-07-29T04:23:05;18.09;76.66
69324;DHT22;56470;47.350;8.718;2022-07-29T04:25:31;18.06;75.69
69324;DHT22;56470;47.350;8.718;2022-07-29T04:27:56;18.12;75.70
69324;DHT22;56470;47.350;8.718;2022-07-29T04:30:28;18.12;75.36
69324;DHT22;56470;47.350;8.718;2022-07-29T04:32:54;18.15;75.46
69324;DHT22;56470;47.350;8.718;2022-07-29T04:35:20;18.09;74.66
69324;DHT22;56470;47.350;8.718;2022-07-29T04:37:45;18.01;75.30
69324;DHT22;56470;47.350;8.718;2022-07-29T04:40:11;17.89;75.73
69324;DHT22;56470;47.350;8.718;2022-07-29T04:42:37;17.88;77.43
69324;DHT22;56470;47.350;8.718;2022-07-29T04:45:02;17.88;77.54
69324;DHT22;56470;47.350;8.718;2022-07-29T04:47:28;17.81;76.99
69324;DHT22;56470;47.350;8.718;2022-07-29T04:49:53;17.94;77.48
69324;DHT22;56470;47.350;8.718;2022-07-29T04:52:18;18.12;76.58
69324;DHT22;56470;47.350;8.718;2022-07-29T04:54:44;18.36;76.60
69324;DHT22;56470;47.350;8.718;2022-07-29T04:57:09;18.39;76.80
69324;DHT22;56470;47.350;8.718;2022-07-29T04:59:35;18.34;77.84
69324;DHT22;56470;47.350;8.718;2022-07-29T05:02:00;18.28;76.92
69324;DHT22;56470;47.350;8.718;2022-07-29T05:04:25;18.39;78.44
69324;DHT22;56470;47.350;8.718;2022-07-29T05:06:51;18.13;78.77
69324;DHT22;56470;47.350;8.718;2022-07-29T05:09:16;17.84;79.42
69324;DHT22;56470;47.350;8.718;2022-07-29T05:11:41;17.71;79.61
69324;DHT22;56470;47.350;8.718;2022-07-29T05:14:07;17.66;80.71
69324;DHT22;56470;47.350;8.718;2022-07-29T05:16:32;17.70;80.90
69324;DHT22;56470;47.350;8.718;2022-07-29T05:18:58;17.77;80.53
69324;DHT22;56470;47.350;8.718;2022-07-29T05:21:23;17.74;79.98
69324;DHT22;56470;47.350;8.718;2022-07-29T05:23:49;17.67;80.21
69324;DHT22;56470;47.350;8.718;2022-07-29T05:26:14;17.84;78.90
69324;DHT22;56470;47.350;8.718;2022-07-29T05:28:40;17.91;79.71
69324;DHT22;56470;47.350;8.718;2022-07-29T05:31:06;18.04;79.61
69324;DHT22;56470;47.350;8.718;2022-07-29T05:33:31;18.02;78.95
69324;DHT22;56470;47.350;8.718;2022-07-29T05:35:57;18.13;79.14
69324;DHT22;56470;47.350;8.718;2022-07-29T05:38:22;18.13;78.35
69324;DHT22;56470;47.350;8.718;2022-07-29T05:40:47;18.19;78.15
69324;DHT22;56470;47.350;8.718;2022-07-29T05:43:13;18.34;78.66
69324;DHT22;56470;47.350;8.718;2022-07-29T05:45:39;18.49;77.35
69324;DHT22;56470;47.350;8.718;2022-07-29T05:48:04;18.47;77.55
69324;DHT22;56470;47.350;8.718;2022-07-29T05:50:29;18.50;77.36
69324;DHT22;56470;47.350;8.718;2022-07-29T05:52:55;18.47;77.20
69324;DHT22;56470;47.350;8.718;2022-07-29T05:55:20;18.49;77.49
69324;DHT22;56470;47.350;8.718;2022-07-29T05:57:45;18.46;77.51
69324;DHT22;56470;47.350;8.718;2022-07-29T06:00:11;18.54;78.06
69324;DHT22;56470;47.350;8.718;2022-07-29T06:02:36;18.67;77.30
69324;DHT22;56470;47.350;8.718;2022-07-29T06:05:02;18.99;76.63
69324;DHT22;56470;47.350;8.718;2022-07-29T06:07:27;19.16;75.12
69324;DHT22;56470;47.350;8.718;2022-07-29T06:09:53;19.22;74.94
69324;DHT22;56470;47.350;8.718;2022-07-29T06:12:21;19.29;74.31
69324;DHT22;56470;47.350;8.718;2022-07-29T06:14:46;19.54;74.41
69324;DHT22;56470;47.350;8.718;2022-07-29T06:17:11;19.92;73.95
69324;DHT22;56470;47.350;8.718;2022-07-29T06:19:37;20.16;72.72
69324;DHT22;56470;47.350;8.718;2022-07-29T06:22:03;20.23;71.03
69324;DHT22;56470;47.350;8.718;2022-07-29T06:24:28;20.30;70.87
69324;DHT22;56470;47.350;8.718;2022-07-29T06:26:54;20.41;70.71
69324;DHT22;56470;47.350;8.718;2022-07-29T06:29:19;20.47;70.58
69324;DHT22;56470;47.350;8.718;2022-07-29T06:31:45;20.40;71.00
69324;DHT22;56470;47.350;8.718;2022-07-29T06:34:10;20.34;70.79
69324;DHT22;56470;47.350;8.718;2022-07-29T06:36:36;20.39;70.79
69324;DHT22;56470;47.350;8.718;2022-07-29T06:39:06;20.36;70.92
69324;DHT22;56470;47.350;8.718;2022-07-29T06:41:35;20.34;70.17
69324;DHT22;56470;47.350;8.718;2022-07-29T06:44:00;20.48;69.62
69324;DHT22;56470;47.350;8.718;2022-07-29T06:46:26;20.57;69.38
69324;DHT22;56470;47.350;8.718;2022-07-29T06:48:52;20.53;70.05
69324;DHT22;56470;47.350;8.718;2022-07-29T06:51:18;20.43;69.94
69324;DHT22;56470;47.350;8.718;2022-07-29T06:53:43;20.44;69.67
69324;DHT22;56470;47.350;8.718;2022-07-29T06:56:09;20.39;70.06
69324;DHT22;56470;47.350;8.718;2022-07-29T06:58:35;20.41;70.37
69324;DHT22;56470;47.350;8.718;2022-07-29T07:01:02;20.40;70.50
69324;DHT22;56470;47.350;8.718;2022-07-29T07:03:28;20.43;70.42
69324;DHT22;56470;47.350;8.718;2022-07-29T07:05:54;20.34;71.47
69324;DHT22;56470;47.350;8.718;2022-07-29T07:08:20;20.34;71.80
69324;DHT22;56470;47.350;8.718;2022-07-29T07:10:47;20.30;71.94
69324;DHT22;56470;47.350;8.718;2022-07-29T07:13:13;20.12;73.94
69324;DHT22;56470;47.350;8.718;2022-07-29T07:15:38;19.95;75.37
69324;DHT22;56470;47.350;8.718;2022-07-29T07:18:04;19.92;74.98
69324;DHT22;56470;47.350;8.718;2022-07-29T07:20:31;19.94;75.03
69324;DHT22;56470;47.350;8.718;2022-07-29T07:22:56;19.94;75.63
69324;DHT22;56470;47.350;8.718;2022-07-29T07:25:21;19.88;76.51
69324;DHT22;56470;47.350;8.718;2022-07-29T07:27:47;19.58;78.55
69324;DHT22;56470;47.350;8.718;2022-07-29T07:30:12;19.47;75.40
69324;DHT22;56470;47.350;8.718;2022-07-29T07:32:38;19.33;77.19
69324;DHT22;56470;47.350;8.718;2022-07-29T07:35:05;19.24;79.16
69324;DHT22;56470;47.350;8.718;2022-07-29T07:37:30;19.34;78.48
69324;DHT22;56470;47.350;8.718;2022-07-29T07:39:56;19.56;77.97
69324;DHT22;56470;47.350;8.718;2022-07-29T07:42:21;19.40;76.68
69324;DHT22;56470;47.350;8.718;2022-07-29T07:44:47;19.31;78.41
69324;DHT22;56470;47.350;8.718;2022-07-29T07:47:13;19.22;77.06
69324;DHT22;56470;47.350;8.718;2022-07-29T07:49:39;19.31;76.97
69324;DHT22;56470;47.350;8.718;2022-07-29T07:52:04;19.19;78.12
69324;DHT22;56470;47.350;8.718;2022-07-29T07:54:30;19.16;78.48
69324;DHT22;56470;47.350;8.718;2022-07-29T07:56:56;19.27;77.86
69324;DHT22;56470;47.350;8.718;2022-07-29T07:59:22;19.34;77.42
69324;DHT22;56470;47.350;8.718;2022-07-29T08:01:49;19.60;77.74
69324;DHT22;56470;47.350;8.718;2022-07-29T08:04:15;19.60;77.37
69324;DHT22;56470;47.350;8.718;2022-07-29T08:06:40;19.70;78.25
69324;DHT22;56470;47.350;8.718;2022-07-29T08:09:06;19.50;77.85
69324;DHT22;56470;47.350;8.718;2022-07-29T08:11:31;19.46;78.46
69324;DHT22;56470;47.350;8.718;2022-07-29T08:13:57;19.34;78.84
69324;DHT22;56470;47.350;8.718;2022-07-29T08:16:23;19.16;78.74
69324;DHT22;56470;47.350;8.718;2022-07-29T08:18:50;19.08;78.33
69324;DHT22;56470;47.350;8.718;2022-07-29T08:21:16;19.03;78.17
69324;DHT22;56470;47.350;8.718;2022-07-29T08:23:45;19.13;78.10
69324;DHT22;56470;47.350;8.718;2022-07-29T08:26:41;19.23;78.36
69324;DHT22;56470;47.350;8.718;2022-07-29T08:29:07;19.11;78.12
69324;DHT22;56470;47.350;8.718;2022-07-29T08:31:32;19.08;77.76
69324;DHT22;56470;47.350;8.718;2022-07-29T08:33:57;19.08;77.52
69324;DHT22;56470;47.350;8.718;2022-07-29T08:36:25;19.11;78.93
69324;DHT22;56470;47.350;8.718;2022-07-29T08:38:50;19.13;79.92
69324;DHT22;56470;47.350;8.718;2022-07-29T08:41:16;19.13;80.62
69324;DHT22;56470;47.350;8.718;2022-07-29T08:43:44;19.19;79.64
69324;DHT22;56470;47.350;8.718;2022-07-29T08:46:09;19.05;80.36
69324;DHT22;56470;47.350;8.718;2022-07-29T08:48:36;19.06;80.33
69324;DHT22;56470;47.350;8.718;2022-07-29T08:51:02;19.08;80.61
69324;DHT22;56470;47.350;8.718;2022-07-29T08:53:28;19.06;80.89
69324;DHT22;56470;47.350;8.718;2022-07-29T08:55:54;19.18;79.96
69324;DHT22;56470;47.350;8.718;2022-07-29T08:58:20;19.19;79.97
69324;DHT22;56470;47.350;8.718;2022-07-29T09:00:50;19.53;79.11
69324;DHT22;56470;47.350;8.718;2022-07-29T09:03:18;19.74;78.21
69324;DHT22;56470;47.350;8.718;2022-07-29T09:05:46;19.98;77.58
69324;DHT22;56470;47.350;8.718;2022-07-29T09:08:12;20.15;77.42
69324;DHT22;56470;47.350;8.718;2022-07-29T09:10:38;20.29;75.99
69324;DHT22;56470;47.350;8.718;2022-07-29T09:13:04;20.44;75.98
69324;DHT22;56470;47.350;8.718;2022-07-29T09:15:30;20.90;74.11
69324;DHT22;56470;47.350;8.718;2022-07-29T09:17:55;21.25;72.70
69324;DHT22;56470;47.350;8.718;2022-07-29T09:20:23;21.23;71.88
69324;DHT22;56470;47.350;8.718;2022-07-29T09:22:49;21.40;71.26
69324;DHT22;56470;47.350;8.718;2022-07-29T09:25:38;21.60;71.90
69324;DHT22;56470;47.350;8.718;2022-07-29T09:28:11;21.44;71.02
69324;DHT22;56470;47.350;8.718;2022-07-29T09:30:54;21.74;71.43
69324;DHT22;56470;47.350;8.718;2022-07-29T09:33:21;21.80;71.54
69324;DHT22;56470;47.350;8.718;2022-07-29T09:35:59;22.02;71.30
69324;DHT22;56470;47.350;8.718;2022-07-29T09:38:24;21.74;71.18
69324;DHT22;56470;47.350;8.718;2022-07-29T09:41:00;21.99;70.44
69324;DHT22;56470;47.350;8.718;2022-07-29T09:43:26;22.10;70.49
69324;DHT22;56470;47.350;8.718;2022-07-29T09:45:52;22.29;70.44
69324;DHT22;56470;47.350;8.718;2022-07-29T09:48:20;22.30;70.86
69324;DHT22;56470;47.350;8.718;2022-07-29T09:50:46;22.25;70.62
69324;DHT22;56470;47.350;8.718;2022-07-29T09:53:30;22.29;71.19
69324;DHT22;56470;47.350;8.718;2022-07-29T09:55:56;22.46;70.70
69324;DHT22;56470;47.350;8.718;2022-07-29T09:58:22;22.46;68.78
69324;DHT22;56470;47.350;8.718;2022-07-29T10:00:49;22.47;68.65
69324;DHT22;56470;47.350;8.718;2022-07-29T10:03:16;22.51;68.41
69324;DHT22;56470;47.350;8.718;2022-07-29T10:05:42;22.39;67.20
69324;DHT22;56470;47.350;8.718;2022-07-29T10:08:09;22.65;66.66
69324;DHT22;56470;47.350;8.718;2022-07-29T10:10:37;22.64;67.14
69324;DHT22;56470;47.350;8.718;2022-07-29T10:15:40;23.12;66.01
69324;DHT22;56470;47.350;8.718;2022-07-29T10:18:09;23.04;65.58
69324;DHT22;56470;47.350;8.718;2022-07-29T10:20:35;23.27;65.22
69324;DHT22;56470;47.350;8.718;2022-07-29T10:23:00;23.27;65.06
69324;DHT22;56470;47.350;8.718;2022-07-29T10:25:26;23.27;64.66
69324;DHT22;56470;47.350;8.718;2022-07-29T10:27:52;23.22;64.16
69324;DHT22;56470;47.350;8.718;2022-07-29T10:30:19;23.12;64.88
69324;DHT22;56470;47.350;8.718;2022-07-29T10:35:44;22.99;64.50
69324;DHT22;56470;47.350;8.718;2022-07-29T10:44:18;23.13;63.61
69324;DHT22;56470;47.350;8.718;2022-07-29T10:46:45;23.32;63.28
69324;DHT22;56470;47.350;8.718;2022-07-29T10:49:14;23.60;60.67
69324;DHT22;56470;47.350;8.718;2022-07-29T10:57:25;25.32;57.86
69324;DHT22;56470;47.350;8.718;2022-07-29T11:00:27;25.56;56.78
69324;DHT22;56470;47.350;8.718;2022-07-29T11:07:32;26.01;54.11
69324;DHT22;56470;47.350;8.718;2022-07-29T11:15:03;26.14;51.92
69324;DHT22;56470;47.350;8.718;2022-07-29T11:17:28;26.06;50.48
69324;DHT22;56470;47.350;8.718;2022-07-29T11:22:57;25.51;52.82
69324;DHT22;56470;47.350;8.718;2022-07-29T11:25:23;25.73;50.76
69324;DHT22;56470;47.350;8.718;2022-07-29T11:27:48;25.90;52.71
69324;DHT22;56470;47.350;8.718;2022-07-29T11:30:14;25.85;53.64
69324;DHT22;56470;47.350;8.718;2022-07-29T11:32:41;25.95;52.92
69324;DHT22;56470;47.350;8.718;2022-07-29T11:37:35;25.46;54.12
69324;DHT22;56470;47.350;8.718;2022-07-29T11:42:37;25.53;53.38
69324;DHT22;56470;47.350;8.718;2022-07-29T11:45:10;25.19;54.57
69324;DHT22;56470;47.350;8.718;2022-07-29T11:47:50;25.11;54.74
69324;DHT22;56470;47.350;8.718;2022-07-29T11:50:18;25.25;54.78
69324;DHT22;56470;47.350;8.718;2022-07-29T11:52:51;25.01;55.90
69324;DHT22;56470;47.350;8.718;2022-07-29T11:55:19;24.85;56.04
69324;DHT22;56470;47.350;8.718;2022-07-29T11:57:52;24.77;56.76
69324;DHT22;56470;47.350;8.718;2022-07-29T12:00:29;24.88;56.22
69324;DHT22;56470;47.350;8.718;2022-07-29T12:02:56;25.07;55.89
69324;DHT22;56470;47.350;8.718;2022-07-29T12:08:11;24.92;54.93
69324;DHT22;56470;47.350;8.718;2022-07-29T12:10:38;25.29;54.73
69324;DHT22;56470;47.350;8.718;2022-07-29T12:13:04;25.33;54.32
69324;DHT22;56470;47.350;8.718;2022-07-29T12:15:29;25.15;55.68
69324;DHT22;56470;47.350;8.718;2022-07-29T12:17:55;25.43;55.15
69324;DHT22;56470;47.350;8.718;2022-07-29T12:20:27;25.54;54.44
69324;DHT22;56470;47.350;8.718;2022-07-29T12:22:54;25.47;54.71
69324;DHT22;56470;47.350;8.718;2022-07-29T12:25:20;24.95;55.46
69324;DHT22;56470;47.350;8.718;2022-07-29T12:27:47;24.91;55.66
69324;DHT22;56470;47.350;8.718;2022-07-29T12:30:15;24.87;56.56
69324;DHT22;56470;47.350;8.718;2022-07-29T12:32:46;24.92;56.54
69324;DHT22;56470;47.350;8.718;2022-07-29T12:35:16;24.85;56.26
69324;DHT22;56470;47.350;8.718;2022-07-29T12:37:44;24.98;55.13
69324;DHT22;56470;47.350;8.718;2022-07-29T12:40:12;25.02;55.08
69324;DHT22;56470;47.350;8.718;2022-07-29T12:42:38;24.88;55.41
69324;DHT22;56470;47.350;8.718;2022-07-29T12:45:04;24.68;56.28
69324;DHT22;56470;47.350;8.718;2022-07-29T12:47:30;24.60;56.83
69324;DHT22;56470;47.350;8.718;2022-07-29T12:50:11;24.68;56.93
69324;DHT22;56470;47.350;8.718;2022-07-29T12:52:36;24.81;56.58
69324;DHT22;56470;47.350;8.718;2022-07-29T12:55:03;24.82;56.41
69324;DHT22;56470;47.350;8.718;2022-07-29T12:57:29;24.64;57.89
69324;DHT22;56470;47.350;8.718;2022-07-29T13:00:14;24.33;58.45
69324;DHT22;56470;47.350;8.718;2022-07-29T13:02:41;24.47;58.27
69324;DHT22;56470;47.350;8.718;2022-07-29T13:05:07;24.57;58.43
69324;DHT22;56470;47.350;8.718;2022-07-29T13:07:34;24.26;59.76
69324;DHT22;56470;47.350;8.718;2022-07-29T13:10:12;23.98;62.43
69324;DHT22;56470;47.350;8.718;2022-07-29T13:13:02;23.73;62.44
69324;DHT22;56470;47.350;8.718;2022-07-29T13:15:27;23.64;62.11
69324;DHT22;56470;47.350;8.718;2022-07-29T13:17:53;23.78;62.62
69324;DHT22;56470;47.350;8.718;2022-07-29T13:20:18;23.92;61.68
69324;DHT22;56470;47.350;8.718;2022-07-29T13:22:48;23.97;62.05
69324;DHT22;56470;47.350;8.718;2022-07-29T13:25:14;23.91;62.87
69324;DHT22;56470;47.350;8.718;2022-07-29T13:27:39;23.89;63.04
69324;DHT22;56470;47.350;8.718;2022-07-29T13:30:08;23.58;62.20
69324;DHT22;56470;47.350;8.718;2022-07-29T13:32:34;23.70;61.38
69324;DHT22;56470;47.350;8.718;2022-07-29T13:35:04;23.75;61.42
69324;DHT22;56470;47.350;8.718;2022-07-29T13:37:30;23.66;61.83
69324;DHT22;56470;47.350;8.718;2022-07-29T13:39:58;23.53;62.93
69324;DHT22;56470;47.350;8.718;2022-07-29T13:42:24;23.18;63.74
69324;DHT22;56470;47.350;8.718;2022-07-29T13:44:50;23.13;64.52
69324;DHT22;56470;47.350;8.718;2022-07-29T13:47:17;23.13;65.41
69324;DHT22;56470;47.350;8.718;2022-07-29T13:49:42;23.08;65.12
69324;DHT22;56470;47.350;8.718;2022-07-29T13:52:08;23.06;65.05
69324;DHT22;56470;47.350;8.718;2022-07-29T13:54:33;22.99;64.68
69324;DHT22;56470;47.350;8.718;2022-07-29T13:57:03;23.09;64.81
69324;DHT22;56470;47.350;8.718;2022-07-29T13:59:28;23.23;64.79
69324;DHT22;56470;47.350;8.718;2022-07-29T14:01:53;23.42;63.49
69324;DHT22;56470;47.350;8.718;2022-07-29T14:04:19;23.32;62.99
69324;DHT22;56470;47.350;8.718;2022-07-29T14:06:44;23.05;63.74
69324;DHT22;56470;47.350;8.718;2022-07-29T14:09:09;22.88;64.29
69324;DHT22;56470;47.350;8.718;2022-07-29T14:11:35;22.51;65.06
69324;DHT22;56470;47.350;8.718;2022-07-29T14:14:01;22.10;68.10
69324;DHT22;56470;47.350;8.718;2022-07-29T14:16:26;21.58;71.25
69324;DHT22;56470;47.350;8.718;2022-07-29T14:18:52;21.23;72.90
69324;DHT22;56470;47.350;8.718;2022-07-29T14:21:17;20.85;74.63
69324;DHT22;56470;47.350;8.718;2022-07-29T14:23:43;20.53;76.59
69324;DHT22;56470;47.350;8.718;2022-07-29T14:26:09;19.81;78.65
69324;DHT22;56470;47.350;8.718;2022-07-29T14:28:34;19.61;79.29
69324;DHT22;56470;47.350;8.718;2022-07-29T14:30:59;19.61;81.45
69324;DHT22;56470;47.350;8.718;2022-07-29T14:33:28;19.66;82.43
69324;DHT22;56470;47.350;8.718;2022-07-29T14:35:53;19.54;82.29
69324;DHT22;56470;47.350;8.718;2022-07-29T14:38:18;19.49;82.26
69324;DHT22;56470;47.350;8.718;2022-07-29T14:40:44;19.53;83.68
69324;DHT22;56470;47.350;8.718;2022-07-29T14:43:09;19.54;84.42
69324;DHT22;56470;47.350;8.718;2022-07-29T14:45:34;19.56;84.38
69324;DHT22;56470;47.350;8.718;2022-07-29T14:48:00;19.54;85.32
69324;DHT22;56470;47.350;8.718;2022-07-29T14:50:25;19.51;84.54
69324;DHT22;56470;47.350;8.718;2022-07-29T14:52:51;19.54;85.54
69324;DHT22;56470;47.350;8.718;2022-07-29T14:55:17;19.50;84.63
69324;DHT22;56470;47.350;8.718;2022-07-29T14:57:42;19.34;85.43
69324;DHT22;56470;47.350;8.718;2022-07-29T15:00:09;19.26;85.81
69324;DHT22;56470;47.350;8.718;2022-07-29T15:02:35;19.09;85.83
69324;DHT22;56470;47.350;8.718;2022-07-29T15:05:00;19.09;87.73
69324;DHT22;56470;47.350;8.718;2022-07-29T15:07:26;19.05;87.32
69324;DHT22;56470;47.350;8.718;2022-07-29T15:09:51;19.06;86.68
69324;DHT22;56470;47.350;8.718;2022-07-29T15:12:17;19.11;87.69
69324;DHT22;56470;47.350;8.718;2022-07-29T15:14:42;19.15;87.09
69324;DHT22;56470;47.350;8.718;2022-07-29T15:17:07;19.09;87.17
69324;DHT22;56470;47.350;8.718;2022-07-29T15:19:33;19.09;87.01
69324;DHT22;56470;47.350;8.718;2022-07-29T15:21:58;18.95;86.98
69324;DHT22;56470;47.350;8.718;2022-07-29T15:24:24;18.87;87.84
69324;DHT22;56470;47.350;8.718;2022-07-29T15:26:49;18.79;87.38
69324;DHT22;56470;47.350;8.718;2022-07-29T15:29:15;18.84;87.76
69324;DHT22;56470;47.350;8.718;2022-07-29T15:31:40;18.91;87.08
69324;DHT22;56470;47.350;8.718;2022-07-29T15:34:05;18.96;86.48
69324;DHT22;56470;47.350;8.718;2022-07-29T15:36:31;19.03;87.28
69324;DHT22;56470;47.350;8.718;2022-07-29T15:38:57;19.03;87.29
69324;DHT22;56470;47.350;8.718;2022-07-29T15:41:22;19.01;87.35
69324;DHT22;56470;47.350;8.718;2022-07-29T15:43:48;18.84;87.83
69324;DHT22;56470;47.350;8.718;2022-07-29T15:46:15;18.79;89.04
69324;DHT22;56470;47.350;8.718;2022-07-29T15:49:00;18.68;89.36
69324;DHT22;56470;47.350;8.718;2022-07-29T15:51:26;18.56;89.49
69324;DHT22;56470;47.350;8.718;2022-07-29T15:53:51;18.46;90.26
69324;DHT22;56470;47.350;8.718;2022-07-29T15:56:17;18.34;90.98
69324;DHT22;56470;47.350;8.718;2022-07-29T15:58:42;18.30;91.78
69324;DHT22;56470;47.350;8.718;2022-07-29T16:01:08;18.29;91.77
69324;DHT22;56470;47.350;8.718;2022-07-29T16:03:33;18.22;91.60
69324;DHT22;56470;47.350;8.718;2022-07-29T16:05:59;18.19;91.96
69324;DHT22;56470;47.350;8.718;2022-07-29T16:08:24;18.17;92.17
69324;DHT22;56470;47.350;8.718;2022-07-29T16:10:50;18.25;91.58
69324;DHT22;56470;47.350;8.718;2022-07-29T16:13:15;18.26;91.73
69324;DHT22;56470;47.350;8.718;2022-07-29T16:15:40;18.30;90.81
69324;DHT22;56470;47.350;8.718;2022-07-29T16:18:06;18.37;90.95
69324;DHT22;56470;47.350;8.718;2022-07-29T16:20:33;18.36;91.04
69324;DHT22;56470;47.350;8.718;2022-07-29T16:22:58;18.40;91.65